createdAt,value
2023-05-19T00:02:34.847Z,92.16
2023-05-19T00:07:37.215Z,90.73
2023-05-19T00:12:38.915Z,90.82
2023-05-19T00:17:40.894Z,89.42
2023-05-19T00:22:42.899Z,88.38
2023-05-19T00:27:44.909Z,89.77
2023-05-19T00:32:46.928Z,90.38
2023-05-19T00:37:49.082Z,93.54
2023-05-19T00:42:51.063Z,93.56
2023-05-19T00:47:53.020Z,95.27
2023-05-19T00:52:55.835Z,94.86
2023-05-19T00:57:57.787Z,94.86
2023-05-19T01:02:59.866Z,94.73
2023-05-19T01:08:01.826Z,94.50
2023-05-19T01:13:04.121Z,95.92
2023-05-19T01:18:10.086Z,96.51
2023-05-19T01:23:32.701Z,95.24
2023-05-19T01:29:03.185Z,93.21
2023-05-19T01:34:05.130Z,91.30
2023-05-19T01:39:07.102Z,88.06
2023-05-19T01:44:09.327Z,88.11
2023-05-19T01:49:11.506Z,88.72
2023-05-19T01:54:13.520Z,88.47
2023-05-19T01:59:42.378Z,84.74
2023-05-19T02:04:48.000Z,83.32
2023-05-19T02:10:27.972Z,83.08
2023-05-19T02:15:32.294Z,83.29
2023-05-19T02:20:34.532Z,84.07
2023-05-19T02:25:36.819Z,85.24
2023-05-19T02:30:38.764Z,85.65
2023-05-19T02:35:40.633Z,86.59
2023-05-19T02:40:42.592Z,87.88
2023-05-19T02:45:44.641Z,88.45
2023-05-19T02:50:46.637Z,88.66
2023-05-19T02:55:48.570Z,89.81
2023-05-19T03:00:50.666Z,90.79
2023-05-19T03:05:52.670Z,91.13
2023-05-19T03:10:54.751Z,94.60
2023-05-19T03:15:56.745Z,92.74
2023-05-19T03:21:00.325Z,93.15
2023-05-19T03:26:02.369Z,92.42
2023-05-19T03:31:04.329Z,92.86
2023-05-19T03:36:07.101Z,93.53
2023-05-19T03:41:09.011Z,93.64
2023-05-19T03:46:11.026Z,94.67
2023-05-19T03:51:13.152Z,95.71
2023-05-19T03:56:15.131Z,95.11
2023-05-19T04:01:17.149Z,95.50
2023-05-19T04:06:19.185Z,94.65
2023-05-19T04:11:21.245Z,95.10
2023-05-19T04:16:23.398Z,94.68
2023-05-19T04:21:25.589Z,95.92
2023-05-19T04:26:27.871Z,96.19
2023-05-19T04:31:29.808Z,96.20
2023-05-19T04:36:31.879Z,94.75
2023-05-19T04:41:33.978Z,93.18
2023-05-19T04:46:35.925Z,94.55
2023-05-19T04:51:38.128Z,95.58
2023-05-19T04:56:39.986Z,94.00
2023-05-19T05:01:41.857Z,92.37
2023-05-19T05:06:43.882Z,91.66
2023-05-19T05:11:45.942Z,92.46
2023-05-19T05:16:48.245Z,92.27
2023-05-19T05:21:51.178Z,91.43
2023-05-19T05:26:54.146Z,92.20
2023-05-19T05:31:56.139Z,92.23
2023-05-19T05:36:58.056Z,90.52
2023-05-19T05:41:59.971Z,90.85
2023-05-19T05:47:03.077Z,89.85
2023-05-19T05:52:06.762Z,88.20
2023-05-19T05:57:09.760Z,87.94
2023-05-19T06:02:11.695Z,88.51
2023-05-19T06:07:13.664Z,88.33
2023-05-19T06:12:16.002Z,90.00
2023-05-19T06:17:17.744Z,88.72
2023-05-19T06:22:19.547Z,87.01
2023-05-19T06:27:21.471Z,82.06
2023-05-19T06:32:23.602Z,80.82
2023-05-19T06:37:25.525Z,78.91
2023-05-19T06:42:27.412Z,77.22
2023-05-19T06:47:29.390Z,76.98
2023-05-19T06:52:31.341Z,77.03
2023-05-19T06:57:33.271Z,74.94
2023-05-19T07:02:35.336Z,72.70
2023-05-19T07:07:37.278Z,68.74
2023-05-19T07:12:39.197Z,64.83
2023-05-19T07:17:41.112Z,63.01
2023-05-19T07:22:43.086Z,59.48
2023-05-19T07:27:45.141Z,54.49
2023-05-19T07:32:47.008Z,50.04
2023-05-19T07:37:49.701Z,43.18
2023-05-19T07:42:51.945Z,39.55
2023-05-19T07:47:54.202Z,38.09
2023-05-19T07:52:56.415Z,35.15
2023-05-19T07:57:58.346Z,33.87
2023-05-19T08:03:00.259Z,34.35
2023-05-19T08:08:02.592Z,35.93
2023-05-19T08:13:04.612Z,36.53
2023-05-19T08:18:06.606Z,39.42
2023-05-19T08:23:08.339Z,41.34
2023-05-19T08:28:10.442Z,40.67
2023-05-19T08:33:12.624Z,41.44
2023-05-19T08:38:14.431Z,41.69
2023-05-19T08:43:16.364Z,42.15
2023-05-19T08:48:18.488Z,41.20
2023-05-19T08:53:32.485Z,41.22
2023-05-19T08:58:36.082Z,42.14
2023-05-19T09:03:38.121Z,41.12
2023-05-19T09:08:40.418Z,41.06
2023-05-19T09:13:42.258Z,41.07
2023-05-19T09:18:56.939Z,40.40
2023-05-19T09:24:03.865Z,40.32
2023-05-19T09:29:16.213Z,39.63
2023-05-19T09:34:18.731Z,39.06
2023-05-19T09:39:21.574Z,38.40
2023-05-19T09:44:24.206Z,38.32
2023-05-19T09:49:27.534Z,37.93
2023-05-19T09:54:29.953Z,37.95
2023-05-19T09:59:33.717Z,37.24
2023-05-19T10:04:36.193Z,35.79
2023-05-19T10:09:38.132Z,35.62
2023-05-19T10:14:40.092Z,35.37
2023-05-19T10:19:41.814Z,35.48
2023-05-19T10:24:43.763Z,34.83
2023-05-19T10:29:46.293Z,34.68
2023-05-19T10:35:06.349Z,33.79
2023-05-19T10:40:12.166Z,33.81
2023-05-19T10:45:18.887Z,32.96
2023-05-19T10:50:20.979Z,33.17
2023-05-19T10:56:01.041Z,33.58
2023-05-19T11:01:03.113Z,33.29
2023-05-19T11:06:29.780Z,32.65
2023-05-19T11:11:55.042Z,32.38
2023-05-19T11:16:57.707Z,32.05
2023-05-19T11:22:10.056Z,31.82
2023-05-19T11:27:31.838Z,30.68
2023-05-19T11:32:35.489Z,30.88
2023-05-19T11:37:37.541Z,30.09
2023-05-19T11:42:39.161Z,29.36
2023-05-19T11:47:56.503Z,29.24
2023-05-19T11:53:03.439Z,29.54
2023-05-19T11:58:06.102Z,29.92
2023-05-19T12:03:08.741Z,30.40
2023-05-19T12:08:14.263Z,30.04
2023-05-19T12:13:16.435Z,31.17
2023-05-19T12:18:18.231Z,30.97
2023-05-19T12:23:20.184Z,31.49
2023-05-19T12:28:21.957Z,31.33
2023-05-19T12:33:23.894Z,30.90
2023-05-19T12:38:25.995Z,29.34
2023-05-19T12:43:28.058Z,29.41
2023-05-19T12:48:30.037Z,30.15
2023-05-19T12:53:32.894Z,30.13
2023-05-19T12:58:35.004Z,30.05
2023-05-19T13:03:40.826Z,30.69
2023-05-19T13:08:42.905Z,31.20
2023-05-19T13:13:45.023Z,31.43
2023-05-19T13:18:47.080Z,31.05
2023-05-19T13:23:48.817Z,31.09
2023-05-19T13:28:50.644Z,30.97
2023-05-19T13:33:52.699Z,30.93
2023-05-19T13:38:54.710Z,30.67
2023-05-19T13:43:59.761Z,30.94
2023-05-19T13:49:01.870Z,30.35
2023-05-19T13:54:03.606Z,30.71
2023-05-19T13:59:05.517Z,30.49
2023-05-19T14:04:07.625Z,30.63
2023-05-19T14:09:09.681Z,30.83
2023-05-19T14:14:11.817Z,31.11
2023-05-19T14:19:14.081Z,30.84
2023-05-19T14:24:16.021Z,30.28
2023-05-19T14:29:19.457Z,30.57
2023-05-19T14:34:21.442Z,31.14
2023-05-19T14:39:23.420Z,32.11
2023-05-19T14:44:30.068Z,31.88
2023-05-19T14:49:32.042Z,31.50
2023-05-19T14:54:34.109Z,31.54
2023-05-19T14:59:38.972Z,32.02
2023-05-19T15:04:40.801Z,32.57
2023-05-19T15:09:42.788Z,32.48
2023-05-19T15:14:44.546Z,32.84
2023-05-19T15:19:46.562Z,32.67
2023-05-19T15:24:58.101Z,32.68
2023-05-19T15:30:00.215Z,33.12
2023-05-19T15:35:02.056Z,32.57
2023-05-19T15:40:06.039Z,33.24
2023-05-19T15:45:08.802Z,32.91
2023-05-19T15:50:11.196Z,33.64
2023-05-19T15:55:13.186Z,34.60
2023-05-19T16:00:15.505Z,34.48
2023-05-19T16:05:17.783Z,34.44
2023-05-19T16:10:19.530Z,34.41
2023-05-19T16:15:22.147Z,34.79
2023-05-19T16:20:24.145Z,35.73
2023-05-19T16:25:26.121Z,36.29
2023-05-19T16:30:28.145Z,36.99
2023-05-19T16:35:30.199Z,37.44
2023-05-19T16:40:32.553Z,37.75
2023-05-19T16:45:34.888Z,38.72
2023-05-19T16:50:37.292Z,39.10
2023-05-19T16:55:39.558Z,39.99
2023-05-19T17:00:41.506Z,40.09
2023-05-19T17:05:43.516Z,40.86
2023-05-19T17:10:45.580Z,41.61
2023-05-19T17:15:47.585Z,42.29
2023-05-19T17:20:49.561Z,43.19
2023-05-19T17:25:54.654Z,43.86
2023-05-19T17:30:56.695Z,44.51
2023-05-19T17:35:58.768Z,45.06
2023-05-19T17:41:01.470Z,45.28
2023-05-19T17:46:03.902Z,45.89
2023-05-19T17:51:06.208Z,46.43
2023-05-19T17:56:08.801Z,46.73
2023-05-19T18:01:11.037Z,47.24
2023-05-19T18:06:12.995Z,47.48
2023-05-19T18:11:15.285Z,48.10
2023-05-19T18:16:17.395Z,48.61
2023-05-19T18:21:19.447Z,48.98
2023-05-19T18:26:21.428Z,49.46
2023-05-19T18:31:23.492Z,49.89
2023-05-19T18:36:25.579Z,50.44
2023-05-19T18:41:27.832Z,51.55
2023-05-19T18:46:31.002Z,52.14
2023-05-19T18:51:33.043Z,52.47
2023-05-19T18:56:34.943Z,53.31
2023-05-19T19:01:37.404Z,53.94
2023-05-19T19:06:40.174Z,54.07
2023-05-19T19:11:42.963Z,55.19
2023-05-19T19:16:46.351Z,55.23
2023-05-19T19:21:48.421Z,55.70
2023-05-19T19:26:50.673Z,56.79
2023-05-19T19:31:52.763Z,57.41
2023-05-19T19:36:54.856Z,56.95
2023-05-19T19:41:56.854Z,56.82
2023-05-19T19:46:58.962Z,56.39
2023-05-19T19:52:01.100Z,56.02
2023-05-19T19:57:03.077Z,56.20
2023-05-19T20:02:05.220Z,56.26
2023-05-19T20:07:07.306Z,55.85
2023-05-19T20:12:09.350Z,56.47
2023-05-19T20:17:11.343Z,56.15
2023-05-19T20:22:13.383Z,56.00
2023-05-19T20:27:15.396Z,55.80
2023-05-19T20:32:17.406Z,55.79
2023-05-19T20:37:19.500Z,56.09
2023-05-19T20:42:21.469Z,55.97
2023-05-19T20:47:23.639Z,55.73
2023-05-19T20:52:25.688Z,55.81
2023-05-19T20:57:28.925Z,55.52
2023-05-19T21:02:31.236Z,55.50
2023-05-19T21:07:33.237Z,56.43
2023-05-19T21:12:35.203Z,57.00
2023-05-19T21:17:37.405Z,57.56
2023-05-19T21:22:39.426Z,57.54
2023-05-19T21:27:41.435Z,58.09
2023-05-19T21:32:43.519Z,58.84
2023-05-19T21:37:45.699Z,58.76
2023-05-19T21:42:47.639Z,58.46
2023-05-19T21:47:49.648Z,58.36
2023-05-19T21:52:51.751Z,58.61
2023-05-19T21:57:53.749Z,58.49
2023-05-19T22:02:55.977Z,60.18
2023-05-19T22:07:58.313Z,59.24
2023-05-19T22:13:00.360Z,58.31
2023-05-19T22:18:02.355Z,58.58
2023-05-19T22:23:04.624Z,58.45
2023-05-19T22:28:06.742Z,57.99
2023-05-19T22:33:09.127Z,58.17
2023-05-19T22:38:11.119Z,58.18
2023-05-19T22:43:13.343Z,59.09
2023-05-19T22:48:15.352Z,59.08
2023-05-19T22:53:17.396Z,59.08
2023-05-19T22:58:19.331Z,58.70
2023-05-19T23:03:21.374Z,58.36
2023-05-19T23:08:23.439Z,57.92
2023-05-19T23:13:25.459Z,57.45
2023-05-19T23:18:27.555Z,57.56
2023-05-19T23:23:29.528Z,57.19
2023-05-19T23:28:31.483Z,57.65
2023-05-19T23:33:33.466Z,57.27
2023-05-19T23:38:36.017Z,57.32
2023-05-19T23:43:38.049Z,57.04
2023-05-19T23:48:40.080Z,56.74
2023-05-19T23:53:42.037Z,56.62
2023-05-19T23:58:44.017Z,57.04
